createdAt,value
2018-03-31T00:01:29.831Z,10.50
2018-03-31T00:03:56.970Z,10.33
2018-03-31T00:06:24.093Z,11.70
2018-03-31T00:08:51.298Z,10.40
2018-03-31T00:11:19.184Z,13.13
2018-03-31T00:13:46.305Z,12.53
2018-03-31T00:16:13.435Z,10.40
2018-03-31T00:18:40.537Z,10.53
2018-03-31T00:21:07.612Z,10.90
2018-03-31T00:23:34.751Z,10.80
2018-03-31T00:26:01.836Z,11.13
2018-03-31T00:28:28.966Z,10.63
2018-03-31T00:30:56.054Z,10.43
2018-03-31T00:33:23.152Z,11.10
2018-03-31T00:35:50.323Z,11.30
2018-03-31T00:38:17.442Z,11.63
2018-03-31T00:40:44.586Z,11.43
2018-03-31T00:43:11.857Z,11.40
2018-03-31T00:45:38.966Z,11.50
2018-03-31T00:48:06.196Z,11.47
2018-03-31T00:50:33.279Z,11.50
2018-03-31T00:53:01.155Z,11.63
2018-03-31T00:55:28.381Z,11.83
2018-03-31T00:57:56.324Z,11.47
2018-03-31T01:00:23.415Z,10.63
2018-03-31T01:02:50.504Z,11.43
2018-03-31T01:05:17.630Z,11.67
2018-03-31T01:07:44.827Z,11.13
2018-03-31T01:10:11.921Z,11.83
2018-03-31T01:12:39.803Z,11.20
2018-03-31T01:15:06.893Z,10.47
2018-03-31T01:17:34.198Z,11.40
2018-03-31T01:20:01.282Z,10.23
2018-03-31T01:22:28.587Z,11.73
2018-03-31T01:24:56.507Z,10.40
2018-03-31T01:27:24.407Z,10.93
2018-03-31T01:29:51.509Z,11.00
2018-03-31T01:32:18.656Z,10.50
2018-03-31T01:34:45.732Z,12.07
2018-03-31T01:37:12.807Z,12.20
2018-03-31T01:39:40.078Z,11.90
2018-03-31T01:42:07.955Z,11.50
2018-03-31T01:44:35.074Z,11.87
2018-03-31T01:47:02.170Z,13.43
2018-03-31T01:49:29.280Z,11.53
2018-03-31T01:51:56.389Z,12.33
2018-03-31T01:54:23.518Z,13.53
2018-03-31T01:56:50.636Z,13.10
2018-03-31T01:59:18.482Z,13.03
2018-03-31T02:01:45.598Z,13.57
2018-03-31T02:04:12.826Z,13.07
2018-03-31T02:06:39.962Z,12.70
2018-03-31T02:09:07.800Z,14.57
2018-03-31T02:11:34.999Z,13.23
2018-03-31T02:14:02.110Z,14.13
2018-03-31T02:16:29.379Z,15.10
2018-03-31T02:18:56.458Z,14.63
2018-03-31T02:21:23.568Z,14.10
2018-03-31T02:23:50.728Z,14.30
2018-03-31T02:26:18.575Z,15.73
2018-03-31T02:28:45.659Z,15.30
2018-03-31T02:31:13.535Z,15.87
2018-03-31T02:33:40.673Z,15.13
2018-03-31T02:36:07.795Z,15.40
2018-03-31T02:38:34.914Z,14.97
2018-03-31T02:41:02.009Z,16.43
2018-03-31T02:43:29.890Z,15.70
2018-03-31T02:45:57.730Z,16.87
2018-03-31T02:48:24.852Z,15.63
2018-03-31T02:50:51.976Z,16.40
2018-03-31T02:53:19.135Z,15.17
2018-03-31T02:55:46.267Z,15.43
2018-03-31T02:58:13.342Z,16.00
2018-03-31T03:00:40.472Z,15.40
2018-03-31T03:03:07.577Z,15.80
2018-03-31T03:05:34.697Z,16.33
2018-03-31T03:08:01.873Z,16.07
2018-03-31T03:10:28.947Z,16.17
2018-03-31T03:12:56.063Z,15.77
2018-03-31T03:15:23.928Z,16.37
2018-03-31T03:17:51.065Z,17.10
2018-03-31T03:20:18.203Z,17.13
2018-03-31T03:22:45.283Z,16.10
2018-03-31T03:25:12.454Z,15.50
2018-03-31T03:27:39.534Z,15.93
2018-03-31T03:30:06.636Z,14.67
2018-03-31T03:32:33.763Z,15.30
2018-03-31T03:35:00.842Z,15.97
2018-03-31T03:37:28.035Z,15.87
2018-03-31T03:39:55.159Z,15.40
2018-03-31T03:42:23.018Z,16.50
2018-03-31T03:44:50.174Z,15.50
2018-03-31T03:47:17.342Z,15.27
2018-03-31T03:49:44.459Z,14.73
2018-03-31T03:52:11.552Z,15.17
2018-03-31T03:54:38.669Z,15.10
2018-03-31T03:57:05.810Z,13.60
2018-03-31T03:59:32.900Z,13.93
2018-03-31T04:02:00.759Z,15.03
2018-03-31T04:04:28.835Z,13.87
2018-03-31T04:06:56.796Z,14.87
2018-03-31T04:09:24.047Z,14.37
2018-03-31T04:11:51.895Z,14.83
2018-03-31T04:14:19.013Z,14.30
2018-03-31T04:16:46.146Z,15.27
2018-03-31T04:19:13.344Z,14.93
2018-03-31T04:21:40.466Z,14.93
2018-03-31T04:24:07.661Z,14.67
2018-03-31T04:26:35.606Z,15.50
2018-03-31T04:29:02.759Z,14.40
2018-03-31T04:31:29.852Z,14.13
2018-03-31T04:33:56.979Z,15.00
2018-03-31T04:36:24.198Z,16.07
2018-03-31T04:38:51.316Z,15.40
2018-03-31T04:41:18.543Z,14.97
2018-03-31T04:43:46.408Z,15.30
2018-03-31T04:46:14.250Z,15.37
2018-03-31T04:48:41.374Z,15.47
2018-03-31T04:51:08.476Z,14.73
2018-03-31T04:53:35.603Z,15.77
2018-03-31T04:56:02.787Z,16.37
2018-03-31T04:58:29.910Z,16.27
2018-03-31T05:00:56.998Z,16.37
2018-03-31T05:03:24.123Z,15.93
2018-03-31T05:05:52.039Z,17.03
2018-03-31T05:08:19.361Z,15.70
2018-03-31T05:10:47.252Z,16.00
2018-03-31T05:13:14.336Z,15.77
2018-03-31T05:15:41.416Z,17.77
2018-03-31T05:18:09.313Z,17.63
2018-03-31T05:20:36.408Z,17.47
2018-03-31T05:23:03.658Z,17.57
2018-03-31T05:25:30.966Z,16.80
2018-03-31T05:27:58.158Z,18.07
2018-03-31T05:30:25.278Z,17.57
2018-03-31T05:32:52.544Z,17.80
2018-03-31T05:35:19.676Z,18.17
2018-03-31T05:37:46.783Z,17.50
2018-03-31T05:40:13.904Z,17.80
2018-03-31T05:42:41.022Z,18.57
2018-03-31T05:45:08.154Z,19.10
2018-03-31T05:47:35.996Z,17.83
2018-03-31T05:50:03.082Z,18.63
2018-03-31T05:52:30.231Z,18.60
2018-03-31T05:54:57.324Z,18.87
2018-03-31T05:57:24.567Z,19.33
2018-03-31T05:59:51.688Z,19.00
2018-03-31T06:02:18.778Z,18.87
2018-03-31T06:04:45.900Z,18.80
2018-03-31T06:07:12.984Z,19.27
2018-03-31T06:09:40.186Z,18.80
2018-03-31T06:12:07.314Z,19.17
2018-03-31T06:14:34.446Z,19.27
2018-03-31T06:17:01.544Z,18.77
2018-03-31T06:19:28.672Z,18.70
2018-03-31T06:21:55.809Z,19.70
2018-03-31T06:24:22.923Z,20.27
2018-03-31T06:26:50.008Z,18.70
2018-03-31T06:29:17.142Z,19.53
2018-03-31T06:31:44.291Z,19.63
2018-03-31T06:34:11.369Z,20.73
2018-03-31T06:36:38.486Z,20.50
2018-03-31T06:39:05.568Z,19.67
2018-03-31T06:41:32.688Z,20.33
2018-03-31T06:43:59.815Z,21.40
2018-03-31T06:46:26.975Z,20.73
2018-03-31T06:48:54.069Z,20.77
2018-03-31T06:51:21.963Z,19.77
2018-03-31T06:53:49.038Z,22.00
2018-03-31T06:56:16.158Z,21.37
2018-03-31T06:58:43.234Z,22.77
2018-03-31T07:01:10.355Z,21.57
2018-03-31T07:03:37.489Z,21.40
2018-03-31T07:06:05.381Z,23.07
2018-03-31T07:08:32.530Z,22.73
2018-03-31T07:10:59.654Z,20.67
2018-03-31T07:13:27.551Z,23.80
2018-03-31T07:15:54.661Z,22.67
2018-03-31T07:18:21.773Z,22.23
2018-03-31T07:20:48.959Z,23.50
2018-03-31T07:23:16.043Z,21.83
2018-03-31T07:25:43.118Z,23.37
2018-03-31T07:28:10.372Z,24.33
2018-03-31T07:30:37.443Z,23.60
2018-03-31T07:33:04.656Z,23.20
2018-03-31T07:35:31.846Z,24.03
2018-03-31T07:37:58.964Z,23.77
2018-03-31T07:40:26.046Z,24.07
2018-03-31T07:42:53.167Z,23.60
2018-03-31T07:45:20.251Z,24.23
2018-03-31T07:47:47.386Z,22.57
2018-03-31T07:50:14.500Z,24.13
2018-03-31T07:52:41.650Z,21.67
2018-03-31T07:55:08.725Z,23.20
2018-03-31T07:57:35.825Z,24.87
2018-03-31T08:00:03.786Z,23.83
2018-03-31T08:02:30.950Z,24.23
2018-03-31T08:04:58.830Z,24.67
2018-03-31T08:07:25.966Z,24.27
2018-03-31T08:09:53.902Z,24.77
2018-03-31T08:12:21.069Z,23.73
2018-03-31T08:14:48.239Z,25.97
2018-03-31T08:17:16.214Z,23.33
2018-03-31T08:19:44.107Z,24.53
2018-03-31T08:22:11.184Z,23.43
2018-03-31T08:24:39.274Z,22.37
2018-03-31T08:27:06.332Z,23.10
2018-03-31T08:29:33.450Z,23.73
2018-03-31T08:32:00.663Z,23.73
2018-03-31T08:34:27.882Z,24.57
2018-03-31T08:36:57.004Z,24.00
2018-03-31T08:39:24.214Z,27.47
2018-03-31T08:41:51.330Z,28.37
2018-03-31T08:44:18.412Z,28.70
2018-03-31T08:46:45.600Z,26.30
2018-03-31T08:49:13.484Z,24.67
2018-03-31T08:51:40.563Z,23.23
2018-03-31T08:54:07.709Z,23.67
2018-03-31T08:56:34.888Z,22.63
2018-03-31T08:59:02.010Z,22.30
2018-03-31T09:01:29.220Z,21.03
2018-03-31T09:03:56.362Z,22.93
2018-03-31T09:06:23.615Z,22.53
2018-03-31T09:08:50.695Z,22.90
2018-03-31T09:11:17.832Z,21.47
2018-03-31T09:13:44.952Z,22.60
2018-03-31T09:16:12.040Z,23.67
2018-03-31T09:18:39.176Z,23.43
2018-03-31T09:21:07.066Z,22.83
2018-03-31T09:23:34.199Z,24.60
2018-03-31T09:26:01.414Z,25.37
2018-03-31T09:28:28.633Z,24.63
2018-03-31T09:30:55.905Z,22.90
2018-03-31T09:33:22.990Z,23.90
2018-03-31T09:35:50.834Z,23.57
2018-03-31T09:38:17.956Z,26.63
2018-03-31T09:40:45.108Z,30.50
2018-03-31T09:43:12.227Z,30.50
2018-03-31T09:45:39.306Z,26.70
2018-03-31T09:48:06.484Z,27.40
2018-03-31T09:50:33.612Z,33.57
2018-03-31T09:53:00.709Z,35.30
2018-03-31T09:55:27.792Z,33.73
2018-03-31T09:57:55.039Z,34.13
2018-03-31T10:00:27.730Z,30.03
2018-03-31T10:02:54.938Z,29.00
2018-03-31T10:05:22.786Z,27.43
2018-03-31T10:07:49.951Z,25.70
2018-03-31T10:10:17.036Z,25.63
2018-03-31T10:12:44.186Z,26.07
2018-03-31T10:15:11.264Z,25.20
2018-03-31T10:17:38.386Z,25.43
2018-03-31T10:20:05.496Z,25.93
2018-03-31T10:22:32.654Z,25.90
2018-03-31T10:24:59.770Z,26.67
2018-03-31T10:27:26.877Z,26.40
2018-03-31T10:29:53.976Z,25.50
2018-03-31T10:32:21.090Z,25.00
2018-03-31T10:34:48.169Z,26.13
2018-03-31T10:37:15.297Z,25.13
2018-03-31T10:39:42.434Z,27.13
2018-03-31T10:42:09.536Z,27.10
2018-03-31T10:44:36.628Z,26.30
2018-03-31T10:47:03.742Z,24.87
2018-03-31T10:49:30.831Z,26.73
2018-03-31T10:51:57.967Z,27.17
2018-03-31T10:54:25.811Z,27.50
2018-03-31T10:56:52.900Z,26.40
2018-03-31T10:59:20.019Z,25.63
2018-03-31T11:01:48.038Z,27.70
2018-03-31T11:04:15.146Z,26.90
2018-03-31T11:06:43.039Z,28.00
2018-03-31T11:09:10.126Z,28.27
2018-03-31T11:11:37.204Z,31.03
2018-03-31T11:14:04.318Z,31.30
2018-03-31T11:16:31.452Z,32.17
2018-03-31T11:18:58.536Z,32.43
2018-03-31T11:21:25.619Z,31.43
2018-03-31T11:23:53.508Z,30.60
2018-03-31T11:26:20.599Z,32.53
2018-03-31T11:28:47.720Z,30.03
2018-03-31T11:31:14.847Z,28.73
2018-03-31T11:33:41.924Z,31.17
2018-03-31T11:36:09.042Z,32.50
2018-03-31T11:38:36.120Z,33.17
2018-03-31T11:41:03.242Z,32.10
2018-03-31T11:43:30.324Z,30.33
2018-03-31T11:45:57.402Z,32.13
2018-03-31T11:48:24.516Z,31.60
2018-03-31T11:50:51.609Z,31.57
2018-03-31T11:53:18.727Z,31.27
2018-03-31T11:55:45.808Z,31.20
2018-03-31T11:58:12.934Z,30.57
2018-03-31T12:00:40.074Z,29.37
2018-03-31T12:03:07.211Z,32.63
2018-03-31T12:05:34.290Z,34.50
2018-03-31T12:08:01.375Z,31.03
2018-03-31T12:10:29.262Z,29.90
2018-03-31T12:12:56.383Z,28.00
2018-03-31T12:15:24.266Z,28.70
2018-03-31T12:17:52.110Z,28.20
2018-03-31T12:20:19.235Z,28.73
2018-03-31T12:22:46.355Z,27.43
2018-03-31T12:25:13.440Z,31.73
2018-03-31T12:27:40.549Z,30.73
2018-03-31T12:30:07.631Z,36.33
2018-03-31T12:32:34.873Z,36.70
2018-03-31T12:35:01.959Z,39.83
2018-03-31T12:37:29.109Z,42.40
2018-03-31T12:39:56.182Z,43.10
2018-03-31T12:42:24.081Z,47.80
2018-03-31T12:44:51.203Z,50.90
2018-03-31T12:47:18.368Z,49.03
2018-03-31T12:49:46.208Z,47.57
2018-03-31T12:52:13.401Z,47.97
2018-03-31T12:54:40.431Z,49.00
2018-03-31T12:57:07.515Z,47.10
2018-03-31T12:59:34.649Z,49.10
2018-03-31T13:02:01.735Z,50.57
2018-03-31T13:04:28.873Z,51.70
2018-03-31T13:06:56.005Z,47.70
2018-03-31T13:09:23.134Z,46.47
2018-03-31T13:11:50.277Z,48.50
2018-03-31T13:14:17.390Z,48.73
2018-03-31T13:16:44.531Z,51.57
2018-03-31T13:19:11.621Z,48.57
2018-03-31T13:21:39.506Z,47.50
2018-03-31T13:24:06.619Z,47.27
2018-03-31T13:26:33.750Z,44.67
2018-03-31T13:29:00.873Z,45.93
2018-03-31T13:31:28.051Z,69.47
2018-03-31T13:33:55.136Z,68.80
2018-03-31T13:36:22.977Z,56.27
2018-03-31T13:38:50.129Z,52.17
2018-03-31T13:41:18.746Z,52.23
2018-03-31T13:43:45.963Z,54.53
2018-03-31T13:46:13.094Z,55.27
2018-03-31T13:48:40.200Z,55.63
2018-03-31T13:51:07.318Z,56.93
2018-03-31T13:53:34.443Z,59.20
2018-03-31T13:56:01.591Z,60.33
2018-03-31T13:58:28.857Z,57.97
2018-03-31T14:00:56.011Z,58.30
2018-03-31T14:03:23.165Z,60.93
2018-03-31T14:05:50.314Z,59.27
2018-03-31T14:08:17.400Z,61.47
2018-03-31T14:10:45.243Z,59.27
2018-03-31T14:13:12.366Z,58.43
2018-03-31T14:15:39.459Z,55.83
2018-03-31T14:18:06.600Z,57.10
2018-03-31T14:20:34.449Z,57.00
2018-03-31T14:23:01.572Z,57.10
2018-03-31T14:25:28.692Z,57.97
2018-03-31T14:27:55.809Z,57.57
2018-03-31T14:30:22.884Z,58.33
2018-03-31T14:32:50.059Z,55.60
2018-03-31T14:35:17.166Z,53.80
2018-03-31T14:37:44.244Z,52.70
2018-03-31T14:40:11.404Z,57.40
2018-03-31T14:42:38.528Z,54.33
2018-03-31T14:45:06.359Z,54.40
2018-03-31T14:47:35.713Z,52.80
2018-03-31T14:50:02.998Z,54.20
2018-03-31T14:52:30.080Z,52.17
2018-03-31T14:54:57.209Z,53.37
2018-03-31T14:57:24.318Z,53.90
2018-03-31T14:59:51.466Z,53.27
2018-03-31T15:02:18.583Z,52.07
2018-03-31T15:04:45.724Z,51.97
2018-03-31T15:07:12.802Z,62.40
2018-03-31T15:09:40.706Z,58.00
2018-03-31T15:12:07.921Z,58.90
2018-03-31T15:14:35.798Z,57.67
2018-03-31T15:17:02.976Z,55.10
2018-03-31T15:19:30.122Z,58.27
2018-03-31T15:21:57.251Z,62.70
2018-03-31T15:24:24.532Z,62.03
2018-03-31T15:26:51.727Z,56.87
2018-03-31T15:29:19.593Z,56.17
2018-03-31T15:31:46.710Z,54.80
2018-03-31T15:34:15.349Z,48.00
2018-03-31T15:36:43.245Z,47.00
2018-03-31T15:39:10.382Z,49.33
2018-03-31T15:41:37.503Z,49.43
2018-03-31T15:44:04.675Z,56.07
2018-03-31T15:46:31.788Z,54.13
2018-03-31T15:48:58.903Z,52.90
2018-03-31T15:51:25.991Z,55.33
2018-03-31T15:53:53.116Z,57.67
2018-03-31T15:56:20.194Z,56.10
2018-03-31T15:58:47.319Z,50.30
2018-03-31T16:01:14.390Z,47.03
2018-03-31T16:03:41.523Z,46.07
2018-03-31T16:06:08.624Z,44.83
2018-03-31T16:08:36.475Z,47.30
2018-03-31T16:11:03.608Z,47.10
2018-03-31T16:13:30.715Z,41.90
2018-03-31T16:15:57.804Z,41.33
2018-03-31T16:18:24.926Z,41.23
2018-03-31T16:20:52.045Z,43.37
2018-03-31T16:23:19.113Z,44.33
2018-03-31T16:25:46.573Z,44.77
2018-03-31T16:28:13.676Z,45.00
2018-03-31T16:30:40.827Z,45.23
2018-03-31T16:33:07.907Z,48.83
2018-03-31T16:35:34.995Z,52.13
2018-03-31T16:38:02.122Z,52.60
2018-03-31T16:40:29.243Z,61.13
2018-03-31T16:42:57.123Z,64.47
2018-03-31T16:45:24.230Z,67.50
2018-03-31T16:47:51.462Z,64.93
2018-03-31T16:50:18.560Z,62.27
2018-03-31T16:52:46.429Z,58.50
2018-03-31T16:55:13.626Z,61.87
2018-03-31T16:57:40.707Z,73.27
2018-03-31T17:00:07.826Z,63.53
2018-03-31T17:02:34.967Z,49.43
2018-03-31T17:05:02.055Z,45.13
2018-03-31T17:07:29.141Z,46.13
2018-03-31T17:09:56.253Z,49.00
2018-03-31T17:12:23.395Z,49.47
2018-03-31T17:14:50.600Z,49.33
2018-03-31T17:17:17.693Z,79.83
2018-03-31T17:19:44.866Z,78.00
2018-03-31T17:22:12.053Z,58.20
2018-03-31T17:24:39.126Z,50.87
2018-03-31T17:27:06.258Z,52.67
2018-03-31T17:29:33.396Z,51.83
2018-03-31T17:32:00.535Z,52.80
2018-03-31T17:34:27.694Z,53.23
2018-03-31T17:36:54.821Z,61.93
2018-03-31T17:39:21.964Z,69.87
2018-03-31T17:41:49.853Z,61.93
2018-03-31T17:44:17.735Z,45.50
2018-03-31T17:46:44.850Z,46.37
2018-03-31T17:49:12.105Z,44.33
2018-03-31T17:51:39.242Z,48.60
2018-03-31T17:54:06.332Z,50.57
2018-03-31T17:56:33.430Z,55.57
2018-03-31T17:59:00.590Z,55.67
2018-03-31T18:01:27.689Z,64.77
2018-03-31T18:03:54.853Z,68.87
2018-03-31T18:06:22.036Z,72.47
2018-03-31T18:08:49.317Z,71.13
2018-03-31T18:11:16.393Z,74.57
2018-03-31T18:13:43.524Z,73.83
2018-03-31T18:16:11.412Z,68.80
2018-03-31T18:18:38.494Z,67.83
2018-03-31T18:21:05.617Z,73.20
2018-03-31T18:23:32.782Z,79.70
2018-03-31T18:26:00.006Z,88.70
2018-03-31T18:28:27.121Z,90.33
2018-03-31T18:30:54.366Z,88.60
2018-03-31T18:33:21.449Z,89.33
2018-03-31T18:35:48.593Z,94.63
2018-03-31T18:38:16.444Z,84.70
2018-03-31T18:40:43.591Z,74.37
2018-03-31T18:43:10.712Z,72.70
2018-03-31T18:45:38.020Z,68.87
2018-03-31T18:48:05.872Z,76.80
2018-03-31T18:50:32.984Z,90.70
2018-03-31T18:53:00.089Z,90.10
2018-03-31T18:55:28.002Z,91.10
2018-03-31T18:57:55.126Z,85.97
2018-03-31T19:00:22.212Z,74.83
2018-03-31T19:02:49.440Z,74.47
2018-03-31T19:05:16.532Z,75.80
2018-03-31T19:07:43.636Z,72.20
2018-03-31T19:10:10.766Z,70.30
2018-03-31T19:12:37.887Z,71.67
2018-03-31T19:15:04.965Z,75.63
2018-03-31T19:17:32.131Z,74.13
2018-03-31T19:19:59.247Z,71.07
2018-03-31T19:22:26.357Z,85.47
2018-03-31T19:24:59.088Z,88.57
2018-03-31T19:27:27.105Z,90.07
2018-03-31T19:29:54.173Z,93.20
2018-03-31T19:32:21.297Z,87.57
2018-03-31T19:34:48.464Z,95.43
2018-03-31T19:37:15.533Z,100.43
2018-03-31T19:39:48.219Z,98.70
2018-03-31T19:42:15.418Z,104.80
2018-03-31T19:44:42.516Z,107.33
2018-03-31T19:47:09.635Z,106.07
2018-03-31T19:49:36.837Z,119.03
2018-03-31T19:52:04.804Z,115.70
2018-03-31T19:54:31.911Z,121.43
2018-03-31T19:56:59.041Z,127.57
2018-03-31T19:59:26.187Z,128.97
2018-03-31T20:01:53.315Z,123.73
2018-03-31T20:04:20.404Z,116.37
2018-03-31T20:06:47.536Z,116.17
2018-03-31T20:09:14.620Z,112.33
2018-03-31T20:11:41.706Z,112.10
2018-03-31T20:14:09.629Z,108.23
2018-03-31T20:16:36.714Z,107.27
2018-03-31T20:19:04.609Z,102.93
2018-03-31T20:21:31.777Z,97.63
2018-03-31T20:23:58.858Z,92.20
2018-03-31T20:26:26.021Z,90.00
2018-03-31T20:28:53.139Z,83.57
2018-03-31T20:31:20.285Z,76.90
2018-03-31T20:33:47.393Z,73.13
2018-03-31T20:36:15.279Z,71.20
2018-03-31T20:38:42.362Z,70.33
2018-03-31T20:41:09.449Z,69.07
2018-03-31T20:43:37.357Z,72.53
2018-03-31T20:46:04.433Z,69.83
2018-03-31T20:48:31.556Z,63.27
2018-03-31T20:50:58.646Z,66.33
2018-03-31T20:53:25.770Z,65.10
2018-03-31T20:55:52.856Z,66.00
2018-03-31T20:58:19.974Z,69.47
2018-03-31T21:00:47.053Z,63.20
2018-03-31T21:03:14.198Z,66.67
2018-03-31T21:05:41.287Z,69.07
2018-03-31T21:08:08.410Z,67.17
2018-03-31T21:10:36.271Z,69.43
2018-03-31T21:13:03.409Z,67.93
2018-03-31T21:15:30.498Z,68.03
2018-03-31T21:17:58.444Z,72.50
2018-03-31T21:20:25.537Z,71.37
2018-03-31T21:22:52.667Z,69.77
2018-03-31T21:25:19.749Z,67.87
2018-03-31T21:27:46.875Z,64.90
2018-03-31T21:30:13.955Z,65.17
2018-03-31T21:32:41.119Z,66.83
2018-03-31T21:35:08.209Z,69.27
2018-03-31T21:37:35.760Z,67.17
2018-03-31T21:40:03.619Z,71.57
2018-03-31T21:42:30.713Z,72.53
2018-03-31T21:44:57.831Z,72.03
2018-03-31T21:47:25.741Z,65.57
2018-03-31T21:49:52.853Z,64.70
2018-03-31T21:52:19.968Z,61.53
2018-03-31T21:54:47.298Z,70.47
2018-03-31T21:57:14.767Z,69.30
2018-03-31T21:59:42.247Z,65.37
2018-03-31T22:02:11.549Z,63.90
2018-03-31T22:04:38.856Z,61.93
2018-03-31T22:07:05.938Z,63.27
2018-03-31T22:09:33.169Z,62.67
2018-03-31T22:12:00.407Z,62.97
2018-03-31T22:14:33.257Z,66.20
2018-03-31T22:17:00.441Z,70.07
2018-03-31T22:19:27.772Z,77.93
2018-03-31T22:21:55.415Z,80.77
2018-03-31T22:24:22.520Z,83.47
2018-03-31T22:26:49.650Z,93.10
2018-03-31T22:29:16.730Z,94.53
2018-03-31T22:31:44.982Z,86.13
2018-03-31T22:34:12.087Z,78.20
2018-03-31T22:36:39.226Z,72.60
2018-03-31T22:39:07.074Z,73.47
2018-03-31T22:41:34.347Z,72.40
2018-03-31T22:44:01.565Z,69.13
2018-03-31T22:46:28.673Z,69.17
2018-03-31T22:48:55.998Z,72.70
2018-03-31T22:51:23.073Z,71.77
2018-03-31T22:53:50.220Z,69.03
2018-03-31T22:56:17.765Z,67.77
2018-03-31T22:58:45.712Z,72.70
2018-03-31T23:01:12.792Z,70.50
2018-03-31T23:03:40.023Z,74.13
2018-03-31T23:06:07.242Z,77.80
2018-03-31T23:08:34.359Z,87.27
2018-03-31T23:11:01.442Z,91.23
2018-03-31T23:13:28.705Z,99.73
2018-03-31T23:15:55.862Z,97.73
2018-03-31T23:18:23.439Z,95.50
2018-03-31T23:20:51.884Z,95.33
2018-03-31T23:23:19.178Z,100.27
2018-03-31T23:25:46.278Z,104.53
2018-03-31T23:28:13.396Z,102.97
2018-03-31T23:30:40.474Z,100.87
2018-03-31T23:33:07.617Z,95.27
2018-03-31T23:35:34.703Z,92.37
2018-03-31T23:38:01.792Z,84.83
2018-03-31T23:40:28.932Z,84.20
2018-03-31T23:42:56.104Z,78.80
2018-03-31T23:45:23.211Z,75.53
2018-03-31T23:47:50.330Z,70.57
2018-03-31T23:50:18.224Z,70.90
2018-03-31T23:52:45.358Z,71.03
2018-03-31T23:55:12.440Z,64.93
2018-03-31T23:57:39.607Z,64.93
